Time;durP1;ratioP1;P1;durP2;ratioP2;P2;SDS_P1;SDS_P2;PMS_P1;PMS_P2;Temp;Humidity;BMP_temperature;BMP_pressure;BME280_temperature;BME280_humidity;BME280_pressure;Samples;Min_cycle;Max_cycle;Signal;HPM_P1;HPM_P2
2021/12/28 00:01:33;;;;;;;29.23;20.77;;;4.10;99.90;;;;;;4870582;29;20404;-59
2021/12/28 00:03:59;;;;;;;31.20;20.77;;;4.20;99.90;;;;;;4888210;29;20115;-58
2021/12/28 00:06:25;;;;;;;28.42;19.70;;;4.20;99.90;;;;;;4886838;29;20044;-60
2021/12/28 00:08:50;;;;;;;28.42;19.52;;;4.20;99.90;;;;;;4887833;29;20139;-60
2021/12/28 00:11:17;;;;;;;30.10;20.17;;;4.20;99.90;;;;;;4872924;29;20052;-60
2021/12/28 00:13:44;;;;;;;31.98;19.75;;;4.20;99.90;;;;;;4870862;29;20115;-60
2021/12/28 00:18:39;;;;;;;28.50;18.90;;;4.20;99.90;;;;;;4869050;29;22205;-60
2021/12/28 00:21:06;;;;;;;29.63;19.95;;;4.20;99.90;;;;;;4882625;29;20053;-60
2021/12/28 00:23:40;;;;;;;29.10;19.55;;;4.20;99.90;;;;;;4884401;29;20051;-58
2021/12/28 00:26:12;;;;;;;33.95;21.83;;;4.20;99.90;;;;;;4886308;29;20157;-61
2021/12/28 00:28:39;;;;;;;34.42;20.80;;;4.20;99.90;;;;;;4873296;29;20583;-60
2021/12/28 00:31:06;;;;;;;30.55;19.10;;;4.20;99.90;;;;;;4868220;29;20056;-60
2021/12/28 00:33:31;;;;;;;30.02;20.35;;;4.20;99.90;;;;;;4868761;29;20052;-61
2021/12/28 00:35:57;;;;;;;30.42;20.52;;;4.20;99.90;;;;;;4866219;29;20112;-60
2021/12/28 00:38:26;;;;;;;33.13;20.48;;;4.20;99.90;;;;;;4886883;29;20052;-61
2021/12/28 00:40:55;;;;;;;32.13;21.33;;;4.20;99.90;;;;;;4865011;29;20059;-60
2021/12/28 00:43:21;;;;;;;34.38;21.55;;;4.20;99.90;;;;;;4867778;29;20131;-60
2021/12/28 00:45:47;;;;;;;33.83;22.27;;;4.20;99.90;;;;;;4882663;29;20052;-59
2021/12/28 00:48:14;;;;;;;33.88;22.17;;;4.20;99.90;;;;;;4886819;29;20048;-60
2021/12/28 00:50:41;;;;;;;33.17;21.48;;;4.20;99.90;;;;;;4877174;29;20519;-60
2021/12/28 00:53:07;;;;;;;32.38;20.83;;;4.20;99.90;;;;;;4885364;29;20060;-60
2021/12/28 00:55:33;;;;;;;34.72;22.63;;;4.20;99.90;;;;;;4885315;29;21789;-60
2021/12/28 00:58:00;;;;;;;36.45;22.98;;;4.20;99.90;;;;;;4886872;29;20128;-60
2021/12/28 01:00:28;;;;;;;35.80;22.65;;;4.20;99.90;;;;;;4884223;29;20123;-59
2021/12/28 01:02:56;;;;;;;35.80;23.30;;;4.20;99.90;;;;;;4870685;29;20048;-60
2021/12/28 01:05:23;;;;;;;35.80;22.45;;;4.20;99.90;;;;;;4885982;29;20053;-60
2021/12/28 01:07:49;;;;;;;35.88;22.77;;;4.20;99.90;;;;;;4885085;29;21557;-60
2021/12/28 01:10:21;;;;;;;40.22;24.90;;;4.20;99.90;;;;;;4884116;29;20045;-60
2021/12/28 01:12:49;;;;;;;44.25;25.15;;;4.30;99.90;;;;;;4885577;29;20519;-60
2021/12/28 01:15:16;;;;;;;42.15;25.38;;;4.30;99.90;;;;;;4868238;29;20094;-60
2021/12/28 01:17:42;;;;;;;43.10;26.05;;;4.20;99.90;;;;;;4885948;29;20504;-60
2021/12/28 01:20:10;;;;;;;41.67;25.83;;;4.30;99.90;;;;;;4884543;29;20049;-60
2021/12/28 01:22:37;;;;;;;45.50;26.83;;;4.30;99.90;;;;;;4884780;29;20040;-60
2021/12/28 01:25:05;;;;;;;45.13;26.35;;;4.30;99.90;;;;;;4882771;29;20519;-60
2021/12/28 01:27:31;;;;;;;46.90;26.60;;;4.30;99.90;;;;;;4868245;29;20577;-60
2021/12/28 01:29:57;;;;;;;43.15;26.90;;;4.30;99.90;;;;;;4870018;29;20048;-60
2021/12/28 01:32:22;;;;;;;56.17;27.70;;;4.30;99.90;;;;;;4872481;29;20043;-60
2021/12/28 01:34:49;;;;;;;51.42;28.75;;;4.30;99.90;;;;;;4885938;29;20060;-60
2021/12/28 01:37:14;;;;;;;57.58;30.08;;;4.30;99.90;;;;;;4885683;29;20516;-61
2021/12/28 01:39:40;;;;;;;65.07;31.17;;;4.30;99.90;;;;;;4885349;29;20079;-59
2021/12/28 01:42:07;;;;;;;62.00;30.80;;;4.30;99.90;;;;;;4884409;29;20045;-60
2021/12/28 01:44:34;;;;;;;68.68;33.38;;;4.40;99.90;;;;;;4883555;29;20050;-59
2021/12/28 01:47:01;;;;;;;75.45;35.50;;;4.40;99.90;;;;;;4886536;29;20538;-60
2021/12/28 01:49:27;;;;;;;85.38;35.58;;;4.40;99.90;;;;;;4884816;29;20485;-60
2021/12/28 01:51:53;;;;;;;78.50;35.40;;;4.50;99.90;;;;;;4886091;29;20139;-59
2021/12/28 01:54:20;;;;;;;79.22;35.45;;;4.50;99.90;;;;;;4872731;29;20048;-60
2021/12/28 01:56:48;;;;;;;91.78;37.60;;;4.50;99.90;;;;;;4872438;29;20364;-60
2021/12/28 01:59:17;;;;;;;90.55;37.30;;;4.50;99.90;;;;;;4886220;29;20040;-59
2021/12/28 02:01:43;;;;;;;94.97;39.42;;;4.60;99.90;;;;;;4888855;29;20123;-61
2021/12/28 02:04:18;;;;;;;121.40;41.83;;;4.60;99.90;;;;;;4883956;29;20087;-60
2021/12/28 02:06:44;;;;;;;108.93;43.53;;;4.60;99.90;;;;;;4890059;29;20052;-60
2021/12/28 02:09:10;;;;;;;125.07;43.67;;;4.70;99.90;;;;;;4889614;29;20063;-60
2021/12/28 02:11:36;;;;;;;115.78;44.72;;;4.70;99.90;;;;;;4888854;29;20133;-61
2021/12/28 02:14:05;;;;;;;150.45;47.53;;;4.80;99.90;;;;;;4870621;29;20060;-59
2021/12/28 02:16:31;;;;;;;117.90;43.50;;;4.80;99.90;;;;;;4888075;29;20092;-60
2021/12/28 02:18:57;;;;;;;152.55;47.63;;;4.90;99.90;;;;;;4869938;29;20045;-60
2021/12/28 02:21:23;;;;;;;163.60;48.53;;;4.80;99.90;;;;;;4888449;29;20067;-59
2021/12/28 02:23:48;;;;;;;188.50;49.67;;;4.90;99.90;;;;;;4888763;29;20095;-61
2021/12/28 02:26:14;;;;;;;166.18;48.90;;;5.00;99.90;;;;;;4872364;29;20056;-60
2021/12/28 02:28:40;;;;;;;159.90;48.03;;;5.00;99.90;;;;;;4888814;29;20147;-60
2021/12/28 02:31:06;;;;;;;182.40;50.38;;;5.00;99.90;;;;;;4887648;29;20051;-60
2021/12/28 02:33:35;;;;;;;130.77;45.80;;;5.00;99.90;;;;;;4887681;29;20107;-60
2021/12/28 02:36:03;;;;;;;216.32;52.88;;;5.00;99.90;;;;;;4871569;29;20147;-61
2021/12/28 02:38:32;;;;;;;191.77;51.50;;;5.10;99.90;;;;;;4883654;29;20614;-61
2021/12/28 02:40:58;;;;;;;168.35;47.15;;;5.10;99.90;;;;;;4869543;29;20045;-60
2021/12/28 02:43:25;;;;;;;189.27;51.65;;;5.10;99.90;;;;;;4886595;29;20086;-61
2021/12/28 02:45:57;;;;;;;236.15;57.38;;;5.20;99.90;;;;;;4887501;29;20103;-60
2021/12/28 02:48:23;;;;;;;312.23;59.50;;;5.20;99.90;;;;;;4883679;29;20140;-61
2021/12/28 02:50:54;;;;;;;265.90;55.88;;;5.20;99.90;;;;;;4887449;29;20535;-60
2021/12/28 02:53:21;;;;;;;257.30;56.88;;;5.20;99.90;;;;;;4874196;29;20053;-60
2021/12/28 02:55:48;;;;;;;244.85;56.63;;;5.20;99.90;;;;;;4887902;29;20044;-61
2021/12/28 02:58:44;;;;;;;269.23;60.63;;;5.30;99.90;;;;;;4887432;29;20056;-59
2021/12/28 03:01:19;;;;;;;238.13;54.58;;;5.30;99.90;;;;;;4845003;29;20049;-60
2021/12/28 03:03:48;;;;;;;229.15;55.53;;;5.40;99.90;;;;;;4888471;29;20053;-60
2021/12/28 03:06:17;;;;;;;263.13;59.03;;;5.40;99.90;;;;;;4868871;29;20056;-61
2021/12/28 03:08:46;;;;;;;231.35;56.38;;;5.40;99.90;;;;;;4889325;29;20139;-61
2021/12/28 03:11:13;;;;;;;234.07;56.25;;;5.50;99.90;;;;;;4887879;29;20052;-60
2021/12/28 03:13:50;;;;;;;263.88;57.83;;;5.40;99.90;;;;;;4886455;29;20087;-61
2021/12/28 03:16:17;;;;;;;263.73;58.88;;;5.50;99.90;;;;;;4888222;29;20533;-61
2021/12/28 03:18:44;;;;;;;287.75;60.28;;;5.50;99.90;;;;;;4887318;29;20184;-60
2021/12/28 03:21:11;;;;;;;213.45;54.53;;;5.50;99.90;;;;;;4875005;29;20048;-60
2021/12/28 03:23:38;;;;;;;240.85;53.55;;;5.50;99.90;;;;;;4888915;29;20057;-61
2021/12/28 03:26:06;;;;;;;267.75;57.47;;;5.50;99.90;;;;;;4886866;29;20136;-60
2021/12/28 03:28:34;;;;;;;272.85;56.90;;;5.50;99.90;;;;;;4888167;29;20053;-61
2021/12/28 03:31:02;;;;;;;247.23;54.17;;;5.50;99.90;;;;;;4888222;29;20045;-60
2021/12/28 03:33:31;;;;;;;265.60;56.67;;;5.50;99.90;;;;;;4868675;29;20055;-60
2021/12/28 03:35:57;;;;;;;262.42;57.50;;;5.60;99.90;;;;;;4870279;29;20126;-60
2021/12/28 03:38:24;;;;;;;311.00;60.08;;;5.60;99.90;;;;;;4885766;29;20045;-60
2021/12/28 03:40:52;;;;;;;288.17;58.95;;;5.60;99.90;;;;;;4885640;29;20139;-61
2021/12/28 03:43:18;;;;;;;221.18;54.63;;;5.60;99.90;;;;;;4886913;29;20530;-60
2021/12/28 03:45:44;;;;;;;270.55;57.85;;;5.70;99.90;;;;;;4873780;29;20499;-61
2021/12/28 03:48:10;;;;;;;255.80;57.17;;;5.60;99.90;;;;;;4884885;29;20403;-60
2021/12/28 03:50:36;;;;;;;231.07;56.20;;;5.70;99.90;;;;;;4887378;29;20052;-59
2021/12/28 03:53:03;;;;;;;173.15;51.58;;;5.70;99.90;;;;;;4885528;29;20055;-60
2021/12/28 03:55:30;;;;;;;233.80;55.22;;;5.70;99.90;;;;;;4882558;29;20052;-60
2021/12/28 03:57:59;;;;;;;243.27;55.35;;;5.80;99.90;;;;;;4870785;29;20054;-61
2021/12/28 04:00:28;;;;;;;231.40;53.88;;;5.70;99.90;;;;;;4885968;29;20044;-60
2021/12/28 04:02:54;;;;;;;283.77;55.60;;;5.60;99.90;;;;;;4885187;29;20058;-60
2021/12/28 04:05:20;;;;;;;233.13;52.53;;;5.70;99.90;;;;;;4886839;29;20396;-61
2021/12/28 04:07:47;;;;;;;162.85;48.33;;;5.70;99.90;;;;;;4886408;29;20059;-60
2021/12/28 04:10:16;;;;;;;232.35;54.28;;;5.60;99.90;;;;;;4854588;29;20104;-60
2021/12/28 04:12:43;;;;;;;196.00;49.00;;;5.60;99.90;;;;;;4885998;29;20056;-61
2021/12/28 04:15:13;;;;;;;152.15;45.70;;;5.70;99.90;;;;;;4865838;29;20057;-60
2021/12/28 04:17:40;;;;;;;184.80;47.65;;;5.60;99.90;;;;;;4886430;29;20044;-61
2021/12/28 04:20:09;;;;;;;165.68;46.50;;;5.60;99.90;;;;;;4886405;29;20572;-61
2021/12/28 04:22:35;;;;;;;153.68;45.75;;;5.60;99.90;;;;;;4869924;29;20056;-61
2021/12/28 04:25:01;;;;;;;153.43;45.08;;;5.60;99.90;;;;;;4884049;29;20120;-61
2021/12/28 04:27:27;;;;;;;151.43;46.30;;;5.60;99.90;;;;;;4884923;29;20588;-61
2021/12/28 04:29:53;;;;;;;128.38;43.53;;;5.60;99.90;;;;;;4887080;29;20052;-60
2021/12/28 04:32:18;;;;;;;215.27;50.70;;;5.60;99.90;;;;;;4885474;29;20119;-60
2021/12/28 04:34:44;;;;;;;200.27;49.63;;;5.60;99.90;;;;;;4884602;29;20071;-60
2021/12/28 04:37:10;;;;;;;207.05;50.13;;;5.50;99.90;;;;;;4884054;29;20084;-60
2021/12/28 04:39:36;;;;;;;205.52;48.55;;;5.60;99.90;;;;;;4881861;29;20479;-61
2021/12/28 04:42:03;;;;;;;222.52;51.03;;;5.60;99.90;;;;;;4886011;29;20044;-60
2021/12/28 04:44:29;;;;;;;171.13;48.17;;;5.60;99.90;;;;;;4885456;29;20052;-60
2021/12/28 04:46:55;;;;;;;156.32;45.00;;;5.60;99.90;;;;;;4886066;29;20049;-61
2021/12/28 04:49:24;;;;;;;168.07;47.47;;;5.60;99.90;;;;;;4887166;29;20056;-59
2021/12/28 04:51:50;;;;;;;177.30;47.03;;;5.60;99.90;;;;;;4887060;29;20135;-59
2021/12/28 04:54:17;;;;;;;191.90;49.00;;;5.60;99.90;;;;;;4871724;29;20060;-60
2021/12/28 04:56:43;;;;;;;188.93;49.08;;;5.60;99.90;;;;;;4886004;29;20048;-59
2021/12/28 04:59:09;;;;;;;165.95;47.58;;;5.70;99.90;;;;;;4867301;29;20048;-60
2021/12/28 05:01:38;;;;;;;208.50;51.92;;;5.60;99.90;;;;;;4868522;29;20064;-60
2021/12/28 05:04:05;;;;;;;193.75;48.85;;;5.70;99.90;;;;;;4885075;29;20100;-60
2021/12/28 05:06:32;;;;;;;201.80;48.60;;;5.70;99.90;;;;;;4886182;29;20055;-59
2021/12/28 05:08:58;;;;;;;185.13;48.42;;;5.80;99.90;;;;;;4885053;29;20045;-60
2021/12/28 05:11:24;;;;;;;189.52;47.30;;;5.80;99.90;;;;;;4882187;29;20045;-60
2021/12/28 05:13:50;;;;;;;207.43;51.13;;;5.80;99.90;;;;;;4866718;29;20523;-60
2021/12/28 05:16:16;;;;;;;226.07;48.85;;;5.80;99.90;;;;;;4869842;29;20139;-60
2021/12/28 05:18:42;;;;;;;173.38;48.85;;;5.80;99.90;;;;;;4867847;29;20067;-58
2021/12/28 05:21:08;;;;;;;209.27;50.08;;;5.80;99.90;;;;;;4869847;29;20052;-60
2021/12/28 05:23:34;;;;;;;158.05;46.13;;;5.80;99.90;;;;;;4880647;29;20488;-60
2021/12/28 05:26:00;;;;;;;152.48;44.67;;;5.90;99.90;;;;;;4870362;29;20063;-59
2021/12/28 05:28:26;;;;;;;142.65;44.85;;;5.80;99.90;;;;;;4886828;29;20059;-60
2021/12/28 05:30:52;;;;;;;148.80;44.67;;;5.80;99.90;;;;;;4867368;29;20169;-60
2021/12/28 05:33:18;;;;;;;127.40;41.38;;;5.70;99.90;;;;;;4884802;29;20053;-60
2021/12/28 05:35:44;;;;;;;143.48;43.55;;;5.70;99.90;;;;;;4867669;29;20047;-60
2021/12/28 05:38:12;;;;;;;130.40;42.85;;;5.70;99.90;;;;;;4887691;29;20045;-59
2021/12/28 05:40:39;;;;;;;121.53;42.20;;;5.70;99.90;;;;;;4885038;29;20135;-60
2021/12/28 05:43:05;;;;;;;152.65;44.03;;;5.60;99.90;;;;;;4884196;29;20089;-59
2021/12/28 05:45:31;;;;;;;105.38;39.40;;;5.60;99.90;;;;;;4871932;29;20056;-60
2021/12/28 05:47:57;;;;;;;96.65;38.53;;;5.60;99.90;;;;;;4870267;29;20178;-60
2021/12/28 05:50:22;;;;;;;106.75;39.33;;;5.60;99.90;;;;;;4884036;29;20059;-60
2021/12/28 05:52:48;;;;;;;90.43;37.60;;;5.60;99.90;;;;;;4867780;29;20063;-60
2021/12/28 05:55:14;;;;;;;113.40;39.25;;;5.50;99.90;;;;;;4885437;29;20056;-59
2021/12/28 05:57:41;;;;;;;85.93;37.28;;;5.50;99.90;;;;;;4885928;29;20100;-59
2021/12/28 06:00:09;;;;;;;95.60;37.30;;;5.50;99.90;;;;;;4868609;29;20701;-60
2021/12/28 06:02:35;;;;;;;100.90;38.55;;;5.50;99.90;;;;;;4883736;29;20080;-60
2021/12/28 06:05:01;;;;;;;90.20;35.78;;;5.50;99.90;;;;;;4866412;29;20056;-60
2021/12/28 06:07:28;;;;;;;90.30;35.95;;;5.40;99.90;;;;;;4884412;29;20132;-59
2021/12/28 06:09:55;;;;;;;92.35;34.90;;;5.40;99.90;;;;;;4866494;29;20151;-60
2021/12/28 06:12:22;;;;;;;90.70;34.15;;;5.40;99.90;;;;;;4871266;29;20060;-60
2021/12/28 06:14:48;;;;;;;77.65;33.42;;;5.40;99.90;;;;;;4853563;29;20053;-60
2021/12/28 06:17:14;;;;;;;71.57;32.30;;;5.40;99.90;;;;;;4878284;29;20523;-60
2021/12/28 06:19:40;;;;;;;78.80;33.35;;;5.40;99.90;;;;;;4883908;29;20078;-60
2021/12/28 06:22:05;;;;;;;70.68;32.38;;;5.40;99.90;;;;;;4866243;29;20048;-59
2021/12/28 06:24:31;;;;;;;75.50;30.65;;;5.40;99.90;;;;;;4883749;29;20059;-60
2021/12/28 06:26:57;;;;;;;72.53;31.85;;;5.40;99.90;;;;;;4864991;29;21393;-60
2021/12/28 06:29:23;;;;;;;70.10;30.45;;;5.40;99.90;;;;;;4880916;29;20155;-60
2021/12/28 06:31:48;;;;;;;69.82;30.73;;;5.40;99.90;;;;;;4881434;29;20060;-60
2021/12/28 06:34:14;;;;;;;66.10;31.02;;;5.40;99.90;;;;;;4883585;29;20048;-59
2021/12/28 06:36:41;;;;;;;71.47;29.98;;;5.40;99.90;;;;;;4885547;29;20420;-60
2021/12/28 06:39:07;;;;;;;63.25;29.80;;;5.50;99.90;;;;;;4883607;29;20090;-60
2021/12/28 06:41:33;;;;;;;67.88;30.02;;;5.40;99.90;;;;;;4884614;29;20515;-60
2021/12/28 06:43:59;;;;;;;67.20;29.80;;;5.40;99.90;;;;;;4887939;29;20048;-59
2021/12/28 06:46:24;;;;;;;65.10;29.92;;;5.40;99.90;;;;;;4884502;29;20099;-59
2021/12/28 06:48:50;;;;;;;66.47;28.50;;;5.50;99.90;;;;;;4888143;29;20087;-59
2021/12/28 06:51:16;;;;;;;70.85;30.02;;;5.40;99.90;;;;;;4886882;29;20063;-59
2021/12/28 06:53:42;;;;;;;62.80;29.38;;;5.40;99.90;;;;;;4887299;29;20056;-59
2021/12/28 06:56:08;;;;;;;66.60;30.17;;;5.40;99.90;;;;;;4887261;29;20056;-60
2021/12/28 06:58:34;;;;;;;60.80;28.02;;;5.40;99.90;;;;;;4887668;29;20406;-59
2021/12/28 07:01:00;;;;;;;62.83;28.48;;;5.40;99.90;;;;;;4869840;29;20060;-60
2021/12/28 07:03:26;;;;;;;63.78;28.17;;;5.40;99.90;;;;;;4870973;29;20095;-60
2021/12/28 07:05:52;;;;;;;58.17;26.65;;;5.30;99.90;;;;;;4884751;29;20127;-59
2021/12/28 07:08:18;;;;;;;61.03;27.40;;;5.40;99.90;;;;;;4869811;29;20055;-60
2021/12/28 07:10:43;;;;;;;61.65;26.35;;;5.40;99.90;;;;;;4869909;29;20147;-60
2021/12/28 07:13:09;;;;;;;57.22;27.20;;;5.30;99.90;;;;;;4887084;29;20045;-59
2021/12/28 07:15:35;;;;;;;64.32;27.40;;;5.30;99.90;;;;;;4886786;29;20065;-59
2021/12/28 07:18:01;;;;;;;64.00;27.30;;;5.30;99.90;;;;;;4873714;29;20049;-60
2021/12/28 07:20:27;;;;;;;73.60;29.23;;;5.30;99.90;;;;;;4885721;29;20041;-60
2021/12/28 07:22:53;;;;;;;58.15;26.85;;;5.30;99.90;;;;;;4885306;29;20143;-60
2021/12/28 07:25:19;;;;;;;68.05;26.83;;;5.30;99.90;;;;;;4886600;29;20040;-60
2021/12/28 07:27:45;;;;;;;60.20;26.85;;;5.30;99.90;;;;;;4886054;29;20100;-59
2021/12/28 07:30:12;;;;;;;56.70;25.90;;;5.30;99.90;;;;;;4885446;29;20514;-60
2021/12/28 07:32:39;;;;;;;56.63;26.63;;;5.30;99.90;;;;;;4887703;29;20045;-60
2021/12/28 07:35:06;;;;;;;60.58;27.63;;;5.20;99.90;;;;;;4884727;29;20124;-60
2021/12/28 07:37:32;;;;;;;62.90;26.77;;;5.20;99.90;;;;;;4887039;29;20060;-60
2021/12/28 07:39:58;;;;;;;54.78;25.63;;;5.30;99.90;;;;;;4886738;29;20598;-60
2021/12/28 07:42:24;;;;;;;65.60;26.48;;;5.30;99.90;;;;;;4886081;29;20045;-60
2021/12/28 07:44:49;;;;;;;63.03;25.95;;;5.30;99.90;;;;;;4866566;29;20464;-59
2021/12/28 07:47:16;;;;;;;55.95;26.38;;;5.20;99.90;;;;;;4887381;29;20044;-59
2021/12/28 07:49:42;;;;;;;67.10;27.08;;;5.30;99.90;;;;;;4886259;29;20408;-60
2021/12/28 07:52:08;;;;;;;58.28;25.55;;;5.30;99.90;;;;;;4885185;29;20044;-60
2021/12/28 07:54:34;;;;;;;53.22;24.55;;;5.30;99.90;;;;;;4871651;29;20053;-60
2021/12/28 07:56:59;;;;;;;54.72;25.08;;;5.30;99.90;;;;;;4886253;29;20040;-60
2021/12/28 07:59:25;;;;;;;62.10;25.08;;;5.30;99.90;;;;;;4886482;29;20523;-60
2021/12/28 08:01:52;;;;;;;55.88;25.15;;;5.30;99.90;;;;;;4867896;29;20080;-60
2021/12/28 08:04:18;;;;;;;52.38;24.67;;;5.30;99.90;;;;;;4886033;29;20076;-59
2021/12/28 08:06:44;;;;;;;47.33;23.10;;;5.40;99.90;;;;;;4884275;29;20071;-60
2021/12/28 08:09:10;;;;;;;54.50;24.27;;;5.40;99.90;;;;;;4884959;29;20053;-59
2021/12/28 08:11:36;;;;;;;53.75;24.23;;;5.50;99.90;;;;;;4885291;29;20056;-60
2021/12/28 08:14:02;;;;;;;53.67;23.55;;;5.50;99.90;;;;;;4884059;29;20159;-60
2021/12/28 08:16:28;;;;;;;55.50;23.70;;;5.50;99.90;;;;;;4886949;29;20103;-59
2021/12/28 08:18:54;;;;;;;48.28;23.10;;;5.50;99.90;;;;;;4885848;29;20119;-60
2021/12/28 08:21:20;;;;;;;44.65;21.95;;;5.50;99.90;;;;;;4886131;29;20147;-60
2021/12/28 08:23:46;;;;;;;52.53;22.95;;;5.50;99.90;;;;;;4882478;29;20119;-60
2021/12/28 08:26:12;;;;;;;53.08;22.27;;;5.50;99.90;;;;;;4868198;29;20068;-60
2021/12/28 08:28:38;;;;;;;53.85;22.20;;;5.60;99.90;;;;;;4887041;29;20497;-60
2021/12/28 08:31:04;;;;;;;46.92;21.52;;;5.50;99.90;;;;;;4883443;29;20167;-59
2021/12/28 08:33:30;;;;;;;48.95;21.00;;;5.50;99.90;;;;;;4868076;29;20504;-60
2021/12/28 08:35:56;;;;;;;45.20;20.33;;;5.50;99.90;;;;;;4884962;29;20048;-60
2021/12/28 08:38:22;;;;;;;57.10;21.27;;;5.60;99.90;;;;;;4887737;29;20083;-60
2021/12/28 08:40:49;;;;;;;45.00;20.92;;;5.60;99.90;;;;;;4886482;29;20048;-60
2021/12/28 08:43:15;;;;;;;41.72;20.23;;;5.60;99.90;;;;;;4867315;29;20048;-60
2021/12/28 08:45:41;;;;;;;42.42;19.83;;;5.60;99.90;;;;;;4885834;29;20072;-60
2021/12/28 08:48:10;;;;;;;45.88;19.83;;;5.60;99.90;;;;;;4868544;29;20062;-59
2021/12/28 08:50:37;;;;;;;37.72;18.83;;;5.60;99.90;;;;;;4866269;29;20048;-60
2021/12/28 08:53:04;;;;;;;45.22;19.27;;;5.60;99.90;;;;;;4884603;29;20500;-60
2021/12/28 08:55:30;;;;;;;39.50;17.92;;;5.70;99.90;;;;;;4885760;29;20044;-58
2021/12/28 08:57:56;;;;;;;38.83;18.27;;;5.70;99.90;;;;;;4885431;29;20059;-60
2021/12/28 09:00:26;;;;;;;42.78;18.35;;;5.70;99.90;;;;;;4866142;29;20415;-60
2021/12/28 09:02:54;;;;;;;38.45;17.58;;;5.80;99.90;;;;;;4884747;29;20505;-60
2021/12/28 09:05:20;;;;;;;40.55;18.23;;;5.80;99.90;;;;;;4884968;29;20049;-60
2021/12/28 09:07:46;;;;;;;38.05;17.00;;;5.90;99.90;;;;;;4883692;29;20045;-60
2021/12/28 09:10:13;;;;;;;44.85;17.27;;;5.90;99.90;;;;;;4883803;29;20045;-60
2021/12/28 09:12:39;;;;;;;42.58;16.63;;;5.90;99.90;;;;;;4884626;29;20146;-60
2021/12/28 09:15:06;;;;;;;42.38;17.70;;;6.00;99.90;;;;;;4866795;29;20500;-60
2021/12/28 09:17:35;;;;;;;36.67;16.17;;;6.00;99.90;;;;;;4884298;29;20041;-60
2021/12/28 09:20:04;;;;;;;39.80;16.05;;;6.10;99.90;;;;;;4865110;29;20051;-60
2021/12/28 09:22:30;;;;;;;35.78;16.08;;;6.10;99.90;;;;;;4867439;29;20048;-59
2021/12/28 09:24:56;;;;;;;33.13;14.43;;;6.20;99.90;;;;;;4884585;29;20052;-60
2021/12/28 09:27:22;;;;;;;34.08;15.05;;;6.20;99.90;;;;;;4885657;29;20564;-58
2021/12/28 09:29:48;;;;;;;31.23;14.45;;;6.30;99.90;;;;;;4868853;29;20078;-59
2021/12/28 09:32:13;;;;;;;27.80;13.80;;;6.30;99.90;;;;;;4869105;29;20428;-60
2021/12/28 09:34:42;;;;;;;39.35;13.70;;;6.30;99.90;;;;;;4884205;29;20054;-60
2021/12/28 09:37:08;;;;;;;35.47;13.65;;;6.30;99.90;;;;;;4885855;29;20056;-60
2021/12/28 09:39:33;;;;;;;36.72;13.40;;;6.30;99.90;;;;;;4879448;29;20049;-60
2021/12/28 09:42:02;;;;;;;30.88;13.75;;;6.30;99.90;;;;;;4884199;29;20044;-60
2021/12/28 09:44:33;;;;;;;33.92;12.85;;;6.30;99.90;;;;;;4882954;29;20061;-60
2021/12/28 09:47:00;;;;;;;33.80;14.00;;;6.40;99.90;;;;;;4861650;29;20084;-59
2021/12/28 09:49:27;;;;;;;33.47;12.73;;;6.40;99.90;;;;;;4885386;29;20049;-60
2021/12/28 09:51:57;;;;;;;26.05;12.23;;;6.50;99.90;;;;;;4866320;29;20052;-59
2021/12/28 09:54:24;;;;;;;32.28;12.45;;;6.50;99.90;;;;;;4883071;29;20048;-60
2021/12/28 09:56:55;;;;;;;28.85;11.52;;;6.50;99.90;;;;;;4882882;29;20052;-60
2021/12/28 09:59:22;;;;;;;33.42;12.70;;;6.50;99.90;;;;;;4866664;29;20417;-60
2021/12/28 10:01:47;;;;;;;30.90;11.75;;;6.60;99.90;;;;;;4883800;29;20467;-60
2021/12/28 10:04:13;;;;;;;31.65;12.30;;;6.60;99.90;;;;;;4880577;29;20048;-60
2021/12/28 10:06:39;;;;;;;37.08;11.65;;;6.60;99.90;;;;;;4883634;29;20123;-60
2021/12/28 10:09:18;;;;;;;28.75;11.38;;;6.70;99.90;;;;;;4869344;29;20048;-61
2021/12/28 10:11:48;;;;;;;32.33;11.57;;;6.70;99.90;;;;;;4885806;29;20049;-60
2021/12/28 10:14:17;;;;;;;35.03;11.32;;;6.80;99.90;;;;;;4865298;29;20072;-60
2021/12/28 10:16:54;;;;;;;29.77;11.07;;;6.80;99.90;;;;;;4886074;29;20072;-60
2021/12/28 10:19:42;;;;;;;36.22;11.70;;;6.80;99.90;;;;;;4886106;29;20041;-60
2021/12/28 10:22:29;;;;;;;35.22;11.60;;;6.80;99.90;;;;;;4870520;29;20400;-60
2021/12/28 10:25:08;;;;;;;29.38;10.60;;;6.90;99.90;;;;;;4873144;29;20045;-61
2021/12/28 10:27:40;;;;;;;27.48;10.45;;;6.90;99.90;;;;;;4887301;29;20048;-60
2021/12/28 10:30:15;;;;;;;26.15;10.20;;;6.90;99.90;;;;;;4886524;29;20048;-60
2021/12/28 10:32:44;;;;;;;25.73;10.75;;;7.00;99.90;;;;;;4870305;29;20495;-60
2021/12/28 10:35:16;;;;;;;26.50;9.80;;;7.00;99.90;;;;;;4885042;29;20084;-59
2021/12/28 10:37:49;;;;;;;22.25;10.05;;;7.00;99.90;;;;;;4870472;29;20729;-60
2021/12/28 10:40:40;;;;;;;24.75;10.68;;;7.00;99.90;;;;;;4888564;29;20103;-60
2021/12/28 10:43:09;;;;;;;28.13;10.32;;;7.00;99.90;;;;;;4882744;29;20051;-60
2021/12/28 10:45:48;;;;;;;25.45;10.10;;;7.00;99.90;;;;;;4888064;29;20116;-60
2021/12/28 10:48:15;;;;;;;30.52;11.27;;;7.00;99.90;;;;;;4887086;29;20056;-61
2021/12/28 10:50:47;;;;;;;31.60;11.52;;;7.00;99.90;;;;;;4888590;29;20188;-60
2021/12/28 10:53:21;;;;;;;22.60;10.45;;;7.00;99.90;;;;;;4885841;29;20045;-61
2021/12/28 10:55:51;;;;;;;21.70;10.80;;;6.90;99.90;;;;;;4886988;29;20048;-61
2021/12/28 10:58:29;;;;;;;24.52;11.27;;;6.90;99.90;;;;;;4886876;29;20047;-61
2021/12/28 11:01:01;;;;;;;25.10;11.40;;;6.90;99.90;;;;;;4887329;29;20059;-61
2021/12/28 11:03:32;;;;;;;27.92;11.82;;;6.90;99.90;;;;;;4869542;29;20056;-61
2021/12/28 11:06:00;;;;;;;28.45;11.77;;;6.90;99.90;;;;;;4887101;29;20044;-61
2021/12/28 11:08:28;;;;;;;30.00;10.85;;;6.90;99.90;;;;;;4869875;29;20452;-60
2021/12/28 11:10:58;;;;;;;25.60;11.68;;;6.80;99.90;;;;;;4870151;29;20056;-61
2021/12/28 11:13:30;;;;;;;23.05;11.07;;;6.80;99.90;;;;;;4887573;29;20091;-61
2021/12/28 11:15:57;;;;;;;29.70;11.95;;;6.80;99.90;;;;;;4888047;29;20063;-61
2021/12/28 11:18:30;;;;;;;27.23;12.30;;;6.80;99.90;;;;;;4868494;29;20088;-61
2021/12/28 11:20:58;;;;;;;27.60;11.95;;;6.80;99.90;;;;;;4872974;29;20040;-61
2021/12/28 11:23:27;;;;;;;26.27;11.93;;;6.80;99.90;;;;;;4887694;29;20531;-59
2021/12/28 11:26:19;;;;;;;26.88;11.70;;;6.70;99.90;;;;;;4886872;29;20056;-60
2021/12/28 11:28:55;;;;;;;26.13;11.07;;;6.80;99.90;;;;;;4873269;29;20052;-61
2021/12/28 11:31:24;;;;;;;27.88;11.18;;;6.80;99.90;;;;;;4868719;29;20052;-60
2021/12/28 11:33:59;;;;;;;25.70;11.50;;;6.80;99.90;;;;;;4849983;29;20497;-61
2021/12/28 11:36:52;;;;;;;23.75;11.55;;;6.90;99.90;;;;;;4867270;29;20476;-60
2021/12/28 11:39:21;;;;;;;23.80;11.75;;;6.90;99.90;;;;;;4884334;29;20397;-61
2021/12/28 11:41:48;;;;;;;26.73;10.98;;;6.90;99.90;;;;;;4869021;29;20117;-61
2021/12/28 11:44:17;;;;;;;23.73;11.35;;;6.90;99.90;;;;;;4867610;29;20140;-60
2021/12/28 11:46:43;;;;;;;23.38;11.15;;;6.90;99.90;;;;;;4852651;29;20400;-61
2021/12/28 11:49:12;;;;;;;23.25;11.10;;;6.90;99.90;;;;;;4885782;29;20055;-61
2021/12/28 11:51:38;;;;;;;22.63;11.98;;;6.90;99.90;;;;;;4882802;29;20099;-60
2021/12/28 11:54:08;;;;;;;27.63;11.52;;;6.90;99.90;;;;;;4885017;29;20516;-61
2021/12/28 11:56:37;;;;;;;22.05;11.82;;;6.90;99.90;;;;;;4886830;29;20409;-60
2021/12/28 11:59:17;;;;;;;24.05;11.98;;;6.90;99.90;;;;;;4869729;29;20044;-61
2021/12/28 12:01:54;;;;;;;22.00;11.35;;;7.00;99.90;;;;;;4867362;29;20052;-61
2021/12/28 12:04:32;;;;;;;23.23;11.43;;;7.00;99.90;;;;;;4868096;29;20056;-61
2021/12/28 12:07:13;;;;;;;20.70;12.18;;;7.00;99.90;;;;;;4869244;29;20052;-60
2021/12/28 12:09:51;;;;;;;20.98;11.63;;;7.00;99.90;;;;;;4884275;29;20050;-61
2021/12/28 12:12:45;;;;;;;20.77;11.32;;;7.10;99.90;;;;;;4872404;29;20053;-60
2021/12/28 12:15:11;;;;;;;;;;;7.10;99.90;;;;;;4858807;29;20161;-61
2021/12/28 12:17:41;;;;;;;19.50;11.45;;;7.10;99.90;;;;;;4886153;29;19927;-61
2021/12/28 12:20:30;;;;;;;20.63;11.68;;;7.10;99.90;;;;;;4870005;29;20040;-61
2021/12/28 12:23:08;;;;;;;19.55;11.48;;;7.10;99.90;;;;;;4871504;29;20501;-61
2021/12/28 12:25:51;;;;;;;21.65;11.43;;;7.20;99.90;;;;;;4869320;29;20104;-61
2021/12/28 12:28:29;;;;;;;22.55;11.50;;;7.20;99.90;;;;;;4885429;29;20080;-61
2021/12/28 12:30:57;;;;;;;20.38;11.10;;;7.20;99.90;;;;;;4884570;29;20497;-61
2021/12/28 12:33:32;;;;;;;21.67;12.27;;;7.20;99.90;;;;;;4869969;29;20049;-61
2021/12/28 12:36:00;;;;;;;23.15;11.75;;;7.20;99.90;;;;;;4884385;29;20052;-61
2021/12/28 12:38:25;;;;;;;17.75;10.98;;;7.20;99.90;;;;;;4872539;29;20135;-61
2021/12/28 12:41:25;;;;;;;18.73;10.88;;;7.20;99.90;;;;;;4886752;29;20416;-61